AirNav   Air Wisconsin Up To $57,000 Bonus
 
 1515 users online  

FA59 NITV Heliport
Wellington, Florida, USA

GOING TO WELLINGTON?


FAA INFORMATION EFFECTIVE 02 JANUARY 2020

Location

FAA Identifier: FA59
Lat/Long: 26-38-02.2900N 080-13-27.1600W
26-38.038167N 080-13.452667W
26.6339694,-80.2242111
(estimated)
Elevation: 18 ft. / 5 m (estimated)
Variation: 05W (2000)
Time zone: UTC -5 (UTC -4 during Daylight Saving Time)
Zip code: 33414

Heliport Operations

Heliport use: Private use. Permission required prior to landing
Activation date: 05/2001
Control tower: no
ARTCC: MIAMI CENTER
FSS: MIAMI FLIGHT SERVICE STATION
Attendance: MON-FRI 0900-1600
Wind indicator: yes
Segmented circle: no

Heliport Communications

WX ASOS at PBI (8 nm NE): 123.75 (561-683-2548)
WX AWOS-3PT at LNA (8 nm E): 119.925 (561-964-0308)
WX AWOS-3 at F45 (13 nm N): 119.975 (561-630-6932)
WX AWOS-3 at BCT (17 nm S): 121.125 (561-391-2696)

Nearby radio navigation aids

VOR radial/distance  VOR name  Freq  Var
PBIr252/7.9PALM BEACH VORTAC115.7003W
PHKr110/26.6PAHOKEE VOR/DME115.4000E
FLLr001/33.7FORT LAUDERDALE VOR/DME114.4006W

 
NDB name  Hdg/Dist  Freq  Var  ID
UNITED165/17.540505WUTX ..- - -..-

Heliport Services

Runway Information

Helipad H1

Dimensions: 48 x 35 ft. / 15 x 11 m
Surface: concrete
Runway edge lights: FLD
Traffic pattern: leftleft

Heliport Ownership and Management from official FAA records

Ownership: Privately-owned
Owner: NATL INST FOR TRUTH VERIFICATION
11400 FORTUNE CIRCLE
WEST PALM BEACH, FL 33414
Phone 561-798-6280
Manager: DR CHARLES HUMBLE
11400 FORTUNE CIRCLE
WEST PALM BEACH, FL 33414
Phone 561-798-6280

Additional Remarks

FOR CD CTC PALM BEACH APCH AT 561-275-1430

Instrument Procedures

There are no published instrument procedures at FA59.

Some nearby airports with instrument procedures:

KPBI - Palm Beach International Airport (8 nm NE)
KLNA - Palm Beach County Park Airport (8 nm E)
F45 - North Palm Beach County General Aviation Airport (13 nm N)
KBCT - Boca Raton Airport (17 nm S)
06FA - William P Gwinn Airport (17 nm N)
 
Loc | Ops | Rwys | IFR | FBO | Links
Com | Nav | Svcs | Stats | Notes

Reliance Aviation
AirBoss

 
Area around FA59 (NITV Heliport)
 
Road maps at: MapQuest Bing Google
 
Aerial photo
No photo
 
Sectional chart

 
Airport distance calculator
Flying to NITV Heliport? Find the distance to fly.

From to FA59

Sunrise and sunset
Times for 23-Jan-2020
 Local
(UTC-5)
 Zulu
(UTC)
Morning civil twilight06:4611:46
Sunrise07:1012:10
Sunset17:5522:55
Evening civil twilight18:2023:20

Current date and time
Zulu (UTC)  23-Jan-2020 23:14:00
Local (UTC-5)  23-Jan-2020 18:14:00
 
METAR
KPBI 
7nm NE 
232253Z 08010KT 10SM SCT032 BKN039 BKN050 23/17 A3000 RMK AO2 RAB10E33 SLP158 P0002 T02280167
KLNA 
8nm E 
232255Z AUTO 07010G14KT 040V100 10SM SCT032 SCT040 BKN070 23/17 A3000 RMK AO2 T02320170 PNO
KF45 
13nm N 
232250Z AUTO 10007KT 9SM FEW032 SCT039 BKN050 20/15 A3001 RMK AO2 TSNO
KBCT 
16nm SE 
232247Z 08011KT 6SM SCT010 BKN032 21/17 A2999
TAF
KPBI 
7nm NE 
231758Z 2318/2418 07012KT P6SM VCSH SCT030 BKN050 FM240000 10005KT P6SM SCT005 SCT025 FM241500 14007KT P6SM SCT035 SCT050
NOTAMs
Click for the latest NOTAMs
NOTAMs are issued by the DoD/FAA and will open in a separate window not controlled by AirNav.

 

 
 

Would you like to see your business listed on this page?

 If your business provides an interesting product or service to pilots, flight crews, aircraft, or users of the NITV Heliport, you should consider listing it here.  To start the listing process, click on the button below
 
Add a business
 

Other Pages about NITV Heliport

Update a link
 
Copyright © AirNav, LLC. All rights reserved. Privacy Policy  Contact